Time;durP1;ratioP1;P1;durP2;ratioP2;P2;SDS_P1;SDS_P2;PMS_P1;PMS_P2;Temp;Humidity;BMP_temperature;BMP_pressure;BME280_temperature;BME280_humidity;BME280_pressure;Samples;Min_cycle;Max_cycle;Signal;HPM_P1;HPM_P2
2021/08/10 00:01:56;;;;;;;;;;;;;;;;;;4581078;27;19966;-63
2021/08/10 00:04:06;;;;;;;;;;;;;;;;;;4580792;27;19920;-63
2021/08/10 00:06:18;;;;;;;;;;;;;;;;;;4579244;27;27851;-63
2021/08/10 00:08:28;;;;;;;;;;;;;;;;;;4579638;27;20022;-64
2021/08/10 00:10:38;;;;;;;;;;;;;;;;;;4581723;27;19928;-64
2021/08/10 00:12:49;;;;;;;;;;;;;;;;;;4578781;27;19916;-63
2021/08/10 00:14:59;;;;;;;;;;;;;;;;;;4578464;27;19916;-63
2021/08/10 00:17:09;;;;;;;;;;;;;;;;;;4580130;27;19969;-64
2021/08/10 00:19:20;;;;;;;;;;;;;;;;;;4582537;27;19923;-63
2021/08/10 00:21:30;;;;;;;;;;;;;;;;;;4582016;27;19927;-64
2021/08/10 00:23:40;;;;;;;;;;;;;;;;;;4578752;27;19916;-64
2021/08/10 00:25:51;;;;;;;;;;;;;;;;;;4582967;27;28340;-64
2021/08/10 00:28:01;;;;;;;;;;;;;;;;;;4583760;27;19927;-64
2021/08/10 00:30:11;;;;;;;;;;;;;;;;;;4579222;27;20011;-64
2021/08/10 00:32:22;;;;;;;;;;;;;;;;;;4598504;27;20011;-64
2021/08/10 00:34:32;;;;;;;;;;;;;;;;;;4567884;27;19962;-64
2021/08/10 00:36:43;;;;;;;;;;;;;;;;;;4581562;27;20052;-64
2021/08/10 00:38:53;;;;;;;;;;;;;;;;;;4563410;27;19920;-64
2021/08/10 00:41:04;;;;;;;;;;;;;;;;;;4580676;27;19916;-63
2021/08/10 00:43:33;;;;;;;;;;;;;;;;;;4562447;27;20535;-64
2021/08/10 00:45:45;;;;;;;;;;;;;;;;;;4584625;27;19920;-64
2021/08/10 00:47:56;;;;;;;;;;;;;;;;;;4580540;27;19951;-63
2021/08/10 00:50:10;;;;;;;;;;;;;;;;;;4567780;27;19927;-63
2021/08/10 00:52:25;;;;;;;;;;;;;;;;;;4564399;27;19920;-63
2021/08/10 00:54:35;;;;;;;;;;;;;;;;;;4581358;27;19916;-64
2021/08/10 00:56:46;;;;;;;;;;;;;;;;;;4580995;27;19963;-64
2021/08/10 00:58:59;;;;;;;;;;;;;;;;;;4577253;27;19912;-63
2021/08/10 01:01:09;;;;;;;;;;;;;;;;;;4580054;27;20891;-64
2021/08/10 01:03:20;;;;;;;;;;;;;;;;;;4581230;27;19920;-63
2021/08/10 01:05:31;;;;;;;;;;;;;;;;;;4563305;27;20749;-64
2021/08/10 01:07:47;;;;;;;;;;;;;;;;;;4568164;27;19954;-63
2021/08/10 01:10:02;;;;;;;;;;;;;;;;;;4566266;27;19932;-64
2021/08/10 01:12:15;;;;;;;;;;;;;;;;;;4580511;27;19916;-64
2021/08/10 01:14:35;;;;;;;;;;;;;;;;;;4565720;27;19912;-63
2021/08/10 01:16:54;;;;;;;;;;;;;;;;;;4580443;27;19920;-64
2021/08/10 01:19:14;;;;;;;;;;;;;;;;;;4564305;27;19916;-64
2021/08/10 01:21:35;;;;;;;;;;;;;;;;;;4578570;27;19982;-64
2021/08/10 01:23:49;;;;;;;;;;;;;;;;;;4569478;27;19915;-64
2021/08/10 01:26:03;;;;;;;;;;;;;;;;;;4566312;27;19916;-63
2021/08/10 01:28:27;;;;;;;;;;;;;;;;;;4580645;27;19916;-64
2021/08/10 01:30:47;;;;;;;;;;;;;;;;;;4566652;27;19926;-64
2021/08/10 01:32:57;;;;;;;;;;;;;;;;;;4550961;27;19917;-64
2021/08/10 01:35:10;;;;;;;;;;;;;;;;;;4565438;27;20368;-64
2021/08/10 01:37:22;;;;;;;;;;;;;;;;;;4579207;27;20014;-64
2021/08/10 01:39:36;;;;;;;;;;;;;;;;;;4579942;27;19916;-63
2021/08/10 01:41:47;;;;;;;;;;;;;;;;;;4581010;27;19960;-63
2021/08/10 01:43:59;;;;;;;;;;;;;;;;;;4565186;27;19916;-64
2021/08/10 01:46:10;;;;;;;;;;;;;;;;;;4562839;27;19961;-64
2021/08/10 01:48:22;;;;;;;;;;;;;;;;;;4579741;27;19993;-63
2021/08/10 01:50:32;;;;;;;;;;;;;;;;;;4562753;27;19978;-64
2021/08/10 01:52:50;;;;;;;;;;;;;;;;;;4579206;27;19919;-63
2021/08/10 01:55:01;;;;;;;;;;;;;;;;;;4552258;27;19916;-64
2021/08/10 01:57:14;;;;;;;;;;;;;;;;;;4562500;27;19917;-64
2021/08/10 01:59:29;;;;;;;;;;;;;;;;;;4548759;27;20494;-64
2021/08/10 02:01:39;;;;;;;;;;;;;;;;;;4562813;27;20167;-64
2021/08/10 02:03:49;;;;;;;;;;;;;;;;;;4580537;27;19963;-64
2021/08/10 02:06:00;;;;;;;;;;;;;;;;;;4580998;27;20287;-63
2021/08/10 02:08:16;;;;;;;;;;;;;;;;;;4577873;27;20423;-64
2021/08/10 02:10:28;;;;;;;;;;;;;;;;;;4563545;27;19931;-64
2021/08/10 02:12:39;;;;;;;;;;;;;;;;;;4581505;27;19916;-64
2021/08/10 02:14:50;;;;;;;;;;;;;;;;;;4568661;27;19916;-64
2021/08/10 02:17:08;;;;;;;;;;;;;;;;;;4565147;27;19924;-64
2021/08/10 02:19:24;;;;;;;;;;;;;;;;;;4578901;27;19916;-64
2021/08/10 02:21:37;;;;;;;;;;;;;;;;;;4582977;27;19916;-65
2021/08/10 02:23:51;;;;;;;;;;;;;;;;;;4581517;27;19920;-64
2021/08/10 02:26:01;;;;;;;;;;;;;;;;;;4562442;27;20466;-64
2021/08/10 02:28:14;;;;;;;;;;;;;;;;;;4568302;27;19973;-64
2021/08/10 02:30:34;;;;;;;;;;;;;;;;;;4578144;27;19927;-64
2021/08/10 02:32:45;;;;;;;;;;;;;;;;;;4579228;27;20893;-64
2021/08/10 02:34:57;;;;;;;;;;;;;;;;;;4564387;27;19920;-64
2021/08/10 02:37:07;;;;;;;;;;;;;;;;;;4576851;27;20027;-64
2021/08/10 02:39:18;;;;;;;;;;;;;;;;;;4561561;28;19916;-63
2021/08/10 02:41:29;;;;;;;;;;;;;;;;;;4580951;27;19920;-64
2021/08/10 02:43:46;;;;;;;;;;;;;;;;;;4581650;27;19912;-64
2021/08/10 02:45:56;;;;;;;;;;;;;;;;;;4580103;27;19915;-63
2021/08/10 02:48:06;;;;;;;;;;;;;;;;;;4580720;27;19966;-64
2021/08/10 02:50:19;;;;;;;;;;;;;;;;;;4578496;27;20006;-64
2021/08/10 02:52:29;;;;;;;;;;;;;;;;;;4565350;27;19927;-64
2021/08/10 02:54:41;;;;;;;;;;;;;;;;;;4580153;27;20033;-63
2021/08/10 02:57:00;;;;;;;;;;;;;;;;;;4565615;27;19919;-63
2021/08/10 02:59:17;;;;;;;;;;;;;;;;;;4578977;27;19985;-64
2021/08/10 03:01:32;;;;;;;;;;;;;;;;;;4579546;27;19916;-63
2021/08/10 03:03:42;;;;;;;;;;;;;;;;;;4580015;27;19915;-64
2021/08/10 03:05:54;;;;;;;;;;;;;;;;;;4569423;27;20697;-64
2021/08/10 03:08:07;;;;;;;;;;;;;;;;;;4572302;27;19915;-64
2021/08/10 03:10:19;;;;;;;;;;;;;;;;;;4565386;27;20463;-63
2021/08/10 03:12:31;;;;;;;;;;;;;;;;;;4565987;27;20010;-64
2021/08/10 03:14:42;;;;;;;;;;;;;;;;;;4580654;27;20085;-64
2021/08/10 03:16:52;;;;;;;;;;;;;;;;;;4565087;27;19965;-64
2021/08/10 03:19:04;;;;;;;;;;;;;;;;;;4581817;27;21101;-64
2021/08/10 03:21:15;;;;;;;;;;;;;;;;;;4580831;27;19912;-63
2021/08/10 03:23:26;;;;;;;;;;;;;;;;;;4580516;27;19919;-64
2021/08/10 03:25:36;;;;;;;;;;;;;;;;;;4579476;27;20040;-64
2021/08/10 03:27:47;;;;;;;;;;;;;;;;;;4554372;27;19987;-64
2021/08/10 03:29:57;;;;;;;;;;;;;;;;;;4599176;27;20425;-64
2021/08/10 03:32:07;;;;;;;;;;;;;;;;;;4582046;27;19916;-64
2021/08/10 03:34:18;;;;;;;;;;;;;;;;;;4581364;27;20387;-64
2021/08/10 03:36:29;;;;;;;;;;;;;;;;;;4579341;27;19998;-64
2021/08/10 03:38:40;;;;;;;;;;;;;;;;;;4582025;27;20449;-64
2021/08/10 03:40:50;;;;;;;;;;;;;;;;;;4582220;27;19951;-63
2021/08/10 03:43:01;;;;;;;;;;;;;;;;;;4567758;27;19916;-63
2021/08/10 03:45:15;;;;;;;;;;;;;;;;;;4581990;27;20018;-64
2021/08/10 03:47:27;;;;;;;;;;;;;;;;;;4565513;27;19923;-64
2021/08/10 03:49:37;;;;;;;;;;;;;;;;;;4566578;27;19928;-64
2021/08/10 03:51:49;;;;;;;;;;;;;;;;;;4569188;27;19916;-64
2021/08/10 03:53:59;;;;;;;;;;;;;;;;;;4565539;27;19922;-64
2021/08/10 03:56:12;;;;;;;;;;;;;;;;;;4565751;27;19912;-64
2021/08/10 03:58:30;;;;;;;;;;;;;;;;;;4582521;27;19919;-64
2021/08/10 04:00:41;;;;;;;;;;;;;;;;;;4583590;27;19920;-64
2021/08/10 04:02:52;;;;;;;;;;;;;;;;;;4581555;27;19920;-64
2021/08/10 04:05:06;;;;;;;;;;;;;;;;;;4581383;27;20794;-64
2021/08/10 04:07:16;;;;;;;;;;;;;;;;;;4578953;27;19962;-64
2021/08/10 04:09:27;;;;;;;;;;;;;;;;;;4580384;27;20296;-64
2021/08/10 04:11:38;;;;;;;;;;;;;;;;;;4581359;27;20032;-64
2021/08/10 04:13:53;;;;;;;;;;;;;;;;;;4557203;27;19912;-64
2021/08/10 04:16:04;;;;;;;;;;;;;;;;;;4579560;27;19927;-64
2021/08/10 04:18:19;;;;;;;;;;;;;;;;;;4561963;27;20552;-64
2021/08/10 04:20:30;;;;;;;;;;;;;;;;;;4581188;27;19919;-64
2021/08/10 04:22:41;;;;;;;;;;;;;;;;;;4581836;27;20423;-64
2021/08/10 04:24:56;;;;;;;;;;;;;;;;;;4581441;27;20027;-64
2021/08/10 04:27:07;;;;;;;;;;;;;;;;;;4583754;27;19922;-64
2021/08/10 04:29:18;;;;;;;;;;;;;;;;;;4579540;27;19975;-64
2021/08/10 04:31:30;;;;;;;;;;;;;;;;;;4562995;27;20688;-64
2021/08/10 04:33:41;;;;;;;;;;;;;;;;;;4582487;27;19916;-64
2021/08/10 04:35:51;;;;;;;;;;;;;;;;;;4581889;27;20061;-64
2021/08/10 04:38:02;;;;;;;;;;;;;;;;;;4582654;27;19923;-64
2021/08/10 04:40:13;;;;;;;;;;;;;;;;;;4581290;27;19970;-64
2021/08/10 04:42:43;;;;;;;;;;;;;;;;;;4580433;27;20022;-64
2021/08/10 04:44:54;;;;;;;;;;;;;;;;;;4582341;27;19916;-64
2021/08/10 04:47:05;;;;;;;;;;;;;;;;;;4580749;27;19916;-64
2021/08/10 04:49:18;;;;;;;;;;;;;;;;;;4580059;27;19990;-64
2021/08/10 04:51:29;;;;;;;;;;;;;;;;;;4566117;27;19966;-64
2021/08/10 04:53:40;;;;;;;;;;;;;;;;;;4582723;27;20474;-64
2021/08/10 04:55:50;;;;;;;;;;;;;;;;;;4564144;27;19916;-63
2021/08/10 04:58:02;;;;;;;;;;;;;;;;;;4580972;27;20230;-63
2021/08/10 05:00:13;;;;;;;;;;;;;;;;;;4565131;28;20010;-64
2021/08/10 05:02:25;;;;;;;;;;;;;;;;;;4563355;27;20030;-64
2021/08/10 05:04:36;;;;;;;;;;;;;;;;;;4580449;27;19920;-64
2021/08/10 05:06:47;;;;;;;;;;;;;;;;;;4596180;27;20785;-64
2021/08/10 05:08:57;;;;;;;;;;;;;;;;;;4580222;27;19922;-64
2021/08/10 05:11:08;;;;;;;;;;;;;;;;;;4581474;27;19967;-64
2021/08/10 05:13:18;;;;;;;;;;;;;;;;;;4582006;27;19942;-64
2021/08/10 05:15:29;;;;;;;;;;;;;;;;;;4582056;27;20001;-63
2021/08/10 05:17:39;;;;;;;;;;;;;;;;;;4580622;27;19921;-64
2021/08/10 05:19:52;;;;;;;;;;;;;;;;;;4580602;27;19922;-62
2021/08/10 05:22:04;;;;;;;;;;;;;;;;;;4578891;27;19920;-61
2021/08/10 05:24:17;;;;;;;;;;;;;;;;;;4578554;27;19922;-63
2021/08/10 05:26:28;;;;;;;;;;;;;;;;;;4566940;27;19926;-62
2021/08/10 05:28:41;;;;;;;;;;;;;;;;;;4567624;27;19967;-60
2021/08/10 05:30:51;;;;;;;;;;;;;;;;;;4581119;27;20003;-60
2021/08/10 05:33:02;;;;;;;;;;;;;;;;;;4563660;27;19912;-60
2021/08/10 05:35:17;;;;;;;;;;;;;;;;;;4568134;27;19920;-60
2021/08/10 05:37:28;;;;;;;;;;;;;;;;;;4581000;27;20364;-60
2021/08/10 05:39:38;;;;;;;;;;;;;;;;;;4581084;27;19919;-60
2021/08/10 05:41:49;;;;;;;;;;;;;;;;;;4582411;27;20000;-60
2021/08/10 05:44:00;;;;;;;;;;;;;;;;;;4579102;27;19922;-61
2021/08/10 05:46:10;;;;;;;;;;;;;;;;;;4579618;27;19926;-61
2021/08/10 05:48:22;;;;;;;;;;;;;;;;;;4580949;27;19922;-60
2021/08/10 05:50:35;;;;;;;;;;;;;;;;;;4566496;27;19921;-60
2021/08/10 05:52:46;;;;;;;;;;;;;;;;;;4580527;27;19924;-60
2021/08/10 05:54:56;;;;;;;;;;;;;;;;;;4578763;27;19925;-60
2021/08/10 05:57:07;;;;;;;;;;;;;;;;;;4580338;27;20269;-60
2021/08/10 05:59:17;;;;;;;;;;;;;;;;;;4579313;27;19922;-60
2021/08/10 06:01:28;;;;;;;;;;;;;;;;;;4582042;27;19915;-62
2021/08/10 06:03:39;;;;;;;;;;;;;;;;;;4579682;27;19920;-62
2021/08/10 06:05:50;;;;;;;;;;;;;;;;;;4580631;27;20229;-60
2021/08/10 06:08:00;;;;;;;;;;;;;;;;;;4578899;27;19916;-61
2021/08/10 06:10:20;;;;;;;;;;;;;;;;;;4578288;27;19976;-61
2021/08/10 06:12:33;;;;;;;;;;;;;;;;;;4576040;27;20003;-61
2021/08/10 06:14:43;;;;;;;;;;;;;;;;;;4583505;27;20002;-61
2021/08/10 06:16:53;;;;;;;;;;;;;;;;;;4579217;27;19920;-61
2021/08/10 06:19:04;;;;;;;;;;;;;;;;;;4579204;27;20679;-61
2021/08/10 06:21:14;;;;;;;;;;;;;;;;;;4580747;27;20304;-61
2021/08/10 06:23:24;;;;;;;;;;;;;;;;;;4564465;27;19940;-61
2021/08/10 06:25:35;;;;;;;;;;;;;;;;;;4579241;27;20381;-61
2021/08/10 06:27:46;;;;;;;;;;;;;;;;;;4579034;27;19958;-61
2021/08/10 06:29:56;;;;;;;;;;;;;;;;;;4578312;27;19973;-61
2021/08/10 06:32:06;;;;;;;;;;;;;;;;;;4576683;27;20285;-63
2021/08/10 06:34:18;;;;;;;;;;;;;;;;;;4578376;27;20556;-62
2021/08/10 06:36:28;;;;;;;;;;;;;;;;;;4581475;27;19969;-63
2021/08/10 06:38:39;;;;;;;;;;;;;;;;;;4583475;27;19927;-62
2021/08/10 06:40:49;;;;;;;;;;;;;;;;;;4583471;27;19942;-64
2021/08/10 06:42:59;;;;;;;;;;;;;;;;;;4568008;27;19916;-64
2021/08/10 06:45:10;;;;;;;;;;;;;;;;;;4582925;27;20398;-63
2021/08/10 06:47:21;;;;;;;;;;;;;;;;;;4587747;27;21259;-64
2021/08/10 06:49:32;;;;;;;;;;;;;;;;;;4585329;27;19916;-64
2021/08/10 06:51:42;;;;;;;;;;;;;;;;;;4581842;27;19966;-64
2021/08/10 06:53:56;;;;;;;;;;;;;;;;;;4586774;27;20070;-64
2021/08/10 06:56:06;;;;;;;;;;;;;;;;;;4583467;27;20030;-64
2021/08/10 06:58:17;;;;;;;;;;;;;;;;;;4583520;27;19920;-64
2021/08/10 07:00:29;;;;;;;;;;;;;;;;;;4583995;27;19915;-64
2021/08/10 07:02:40;;;;;;;;;;;;;;;;;;4582331;27;20310;-63
2021/08/10 07:04:50;;;;;;;;;;;;;;;;;;4566316;27;19927;-64
2021/08/10 07:07:05;;;;;;;;;;;;;;;;;;4583252;27;19916;-64
2021/08/10 07:09:22;;;;;;;;;;;;;;;;;;4581646;27;20673;-64
2021/08/10 07:11:34;;;;;;;;;;;;;;;;;;4567116;27;19927;-64
2021/08/10 07:13:45;;;;;;;;;;;;;;;;;;4581484;27;19926;-64
2021/08/10 07:15:58;;;;;;;;;;;;;;;;;;4584761;27;20458;-64
2021/08/10 07:18:09;;;;;;;;;;;;;;;;;;4581520;27;19916;-64
2021/08/10 07:20:19;;;;;;;;;;;;;;;;;;4564992;27;19920;-64
2021/08/10 07:22:30;;;;;;;;;;;;;;;;;;4582488;27;20947;-64
2021/08/10 07:24:42;;;;;;;;;;;;;;;;;;4583293;27;20030;-64
2021/08/10 07:26:52;;;;;;;;;;;;;;;;;;4583062;27;19973;-65
2021/08/10 07:29:06;;;;;;;;;;;;;;;;;;4567482;27;19917;-64
2021/08/10 07:31:17;;;;;;;;;;;;;;;;;;4586693;27;20319;-65
2021/08/10 07:33:28;;;;;;;;;;;;;;;;;;4581023;27;19920;-65
2021/08/10 07:35:40;;;;;;;;;;;;;;;;;;4582203;27;19920;-64
2021/08/10 07:37:50;;;;;;;;;;;;;;;;;;4581897;27;19912;-64
2021/08/10 07:40:02;;;;;;;;;;;;;;;;;;4582069;27;19926;-65
2021/08/10 07:42:13;;;;;;;;;;;;;;;;;;4564821;27;20513;-64
2021/08/10 07:44:23;;;;;;;;;;;;;;;;;;4583390;27;19962;-64
2021/08/10 07:46:35;;;;;;;;;;;;;;;;;;4581734;27;19963;-65
2021/08/10 07:48:46;;;;;;;;;;;;;;;;;;4565546;27;21057;-65
2021/08/10 07:50:56;;;;;;;;;;;;;;;;;;4586332;27;19967;-65
2021/08/10 07:53:07;;;;;;;;;;;;;;;;;;4582074;27;19915;-65
2021/08/10 07:55:18;;;;;;;;;;;;;;;;;;4583022;27;19922;-65
2021/08/10 07:57:28;;;;;;;;;;;;;;;;;;4564343;28;20416;-65
2021/08/10 07:59:39;;;;;;;;;;;;;;;;;;4585569;27;19920;-64
2021/08/10 08:01:50;;;;;;;;;;;;;;;;;;4580678;27;19966;-65
2021/08/10 08:04:00;;;;;;;;;;;;;;;;;;4582666;27;20783;-64
2021/08/10 08:06:11;;;;;;;;;;;;;;;;;;4564248;28;19916;-66
2021/08/10 08:08:23;;;;;;;;;;;;;;;;;;4581981;27;19912;-65
2021/08/10 08:10:33;;;;;;;;;;;;;;;;;;4583411;27;20552;-65
2021/08/10 08:12:44;;;;;;;;;;;;;;;;;;4581047;27;20049;-65
2021/08/10 08:14:54;;;;;;;;;;;;;;;;;;4582098;27;20300;-65
2021/08/10 08:17:05;;;;;;;;;;;;;;;;;;4580688;27;19916;-66
2021/08/10 08:19:15;;;;;;;;;;;;;;;;;;4582457;27;19920;-66
2021/08/10 08:21:26;;;;;;;;;;;;;;;;;;4563947;27;19921;-65
2021/08/10 08:23:39;;;;;;;;;;;;;;;;;;4583164;27;19920;-66
2021/08/10 08:25:49;;;;;;;;;;;;;;;;;;4566577;27;19916;-65
2021/08/10 08:28:03;;;;;;;;;;;;;;;;;;4577049;27;19964;-65
2021/08/10 08:30:14;;;;;;;;;;;;;;;;;;4581958;27;20054;-66
2021/08/10 08:32:26;;;;;;;;;;;;;;;;;;4568148;28;19989;-66
2021/08/10 08:34:36;;;;;;;;;;;;;;;;;;4578969;27;20009;-65
2021/08/10 08:36:47;;;;;;;;;;;;;;;;;;4563529;27;19959;-66
2021/08/10 08:38:57;;;;;;;;;;;;;;;;;;4582333;27;19919;-66
2021/08/10 08:41:09;;;;;;;;;;;;;;;;;;4578920;27;20494;-66
2021/08/10 08:43:22;;;;;;;;;;;;;;;;;;4585362;27;19923;-66
2021/08/10 08:45:34;;;;;;;;;;;;;;;;;;4580588;27;19962;-67
2021/08/10 08:47:51;;;;;;;;;;;;;;;;;;4564181;27;19916;-65
2021/08/10 08:50:02;;;;;;;;;;;;;;;;;;4577629;27;19919;-67
2021/08/10 08:52:16;;;;;;;;;;;;;;;;;;4578486;27;19926;-64
2021/08/10 08:54:31;;;;;;;;;;;;;;;;;;4580392;27;20040;-66
2021/08/10 08:56:41;;;;;;;;;;;;;;;;;;4581957;27;20449;-68
2021/08/10 08:58:53;;;;;;;;;;;;;;;;;;4579545;27;19946;-68
2021/08/10 09:01:04;;;;;;;;;;;;;;;;;;4569651;27;20470;-68
2021/08/10 09:03:15;;;;;;;;;;;;;;;;;;4561586;28;20567;-65
2021/08/10 09:05:25;;;;;;;;;;;;;;;;;;4581597;27;19915;-65
2021/08/10 09:07:36;;;;;;;;;;;;;;;;;;4567224;27;19916;-64
2021/08/10 09:09:48;;;;;;;;;;;;;;;;;;4578217;27;19978;-63
2021/08/10 09:12:11;;;;;;;;;;;;;;;;;;4582207;27;19916;-62
2021/08/10 09:14:24;;;;;;;;;;;;;;;;;;4552443;27;19916;-64
2021/08/10 09:16:35;;;;;;;;;;;;;;;;;;4582449;27;19915;-65
2021/08/10 09:18:47;;;;;;;;;;;;;;;;;;4594868;27;19915;-67
2021/08/10 09:21:02;;;;;;;;;;;;;;;;;;4579756;27;19920;-67
2021/08/10 09:23:13;;;;;;;;;;;;;;;;;;4561813;27;19915;-64
2021/08/10 09:25:35;;;;;;;;;;;;;;;;;;4577114;27;19916;-65
2021/08/10 09:27:49;;;;;;;;;;;;;;;;;;4578834;27;19920;-67
2021/08/10 09:30:00;;;;;;;;;;;;;;;;;;4565275;27;19947;-66
2021/08/10 09:32:11;;;;;;;;;;;;;;;;;;4578220;27;19919;-66
2021/08/10 09:34:22;;;;;;;;;;;;;;;;;;4578725;27;19920;-66
2021/08/10 09:36:33;;;;;;;;;;;;;;;;;;4565642;27;19916;-65
2021/08/10 09:38:47;;;;;;;;;;;;;;;;;;4577689;27;19920;-66
2021/08/10 09:41:00;;;;;;;;;;;;;;;;;;4578451;27;19963;-68
2021/08/10 09:43:18;;;;;;;;;;;;;;;;;;4577184;27;19977;-68
2021/08/10 09:45:28;;;;;;;;;;;;;;;;;;4559765;27;19927;-67
2021/08/10 09:47:39;;;;;;;;;;;;;;;;;;4577444;27;19969;-67
2021/08/10 09:49:50;;;;;;;;;;;;;;;;;;4564563;27;20464;-67
2021/08/10 09:52:03;;;;;;;;;;;;;;;;;;4579643;27;19974;-67
2021/08/10 09:54:14;;;;;;;;;;;;;;;;;;4563288;27;19915;-68
2021/08/10 09:56:35;;;;;;;;;;;;;;;;;;4575918;27;20005;-67
2021/08/10 09:58:59;;;;;;;;;;;;;;;;;;4579986;27;19916;-67
2021/08/10 10:01:09;;;;;;;;;;;;;;;;;;4579949;27;19915;-68
2021/08/10 10:03:21;;;;;;;;;;;;;;;;;;4579893;27;19968;-68
2021/08/10 10:05:40;;;;;;;;;;;;;;;;;;4565028;27;19916;-68
2021/08/10 10:08:10;;;;;;;;;;;;;;;;;;4594437;27;19966;-68
2021/08/10 10:10:20;;;;;;;;;;;;;;;;;;4576930;27;20399;-68
2021/08/10 10:12:31;;;;;;;;;;;;;;;;;;4577958;27;19912;-68
2021/08/10 10:14:43;;;;;;;;;;;;;;;;;;4578853;27;19915;-68
2021/08/10 10:16:53;;;;;;;;;;;;;;;;;;4579232;27;19920;-68
2021/08/10 10:19:08;;;;;;;;;;;;;;;;;;4578001;27;19916;-68
2021/08/10 10:21:21;;;;;;;;;;;;;;;;;;4579476;27;19922;-68
2021/08/10 10:23:31;;;;;;;;;;;;;;;;;;4576023;27;19916;-68
2021/08/10 10:25:42;;;;;;;;;;;;;;;;;;4576478;27;19916;-68
2021/08/10 10:27:53;;;;;;;;;;;;;;;;;;4577890;27;19973;-67
2021/08/10 10:30:04;;;;;;;;;;;;;;;;;;4578644;27;19919;-68
2021/08/10 10:32:18;;;;;;;;;;;;;;;;;;4579561;27;20584;-68
2021/08/10 10:34:28;;;;;;;;;;;;;;;;;;4580449;27;20024;-68
2021/08/10 10:36:43;;;;;;;;;;;;;;;;;;4579161;27;19966;-68
2021/08/10 10:38:54;;;;;;;;;;;;;;;;;;4579908;27;20361;-68
2021/08/10 10:41:06;;;;;;;;;;;;;;;;;;4579856;27;19973;-68
2021/08/10 10:43:16;;;;;;;;;;;;;;;;;;4579112;27;19916;-68
2021/08/10 10:45:30;;;;;;;;;;;;;;;;;;4578696;27;19927;-67
2021/08/10 10:47:41;;;;;;;;;;;;;;;;;;4583103;27;19916;-68
2021/08/10 10:49:57;;;;;;;;;;;;;;;;;;4580315;27;19911;-68
2021/08/10 10:52:08;;;;;;;;;;;;;;;;;;4576971;27;19941;-68
2021/08/10 10:54:26;;;;;;;;;;;;;;;;;;4575588;27;19916;-67
2021/08/10 10:56:36;;;;;;;;;;;;;;;;;;4581017;27;19922;-67
2021/08/10 10:58:46;;;;;;;;;;;;;;;;;;4577092;27;19919;-68
2021/08/10 11:01:13;;;;;;;;;;;;;;;;;;4578303;27;19919;-67
2021/08/10 11:03:25;;;;;;;;;;;;;;;;;;4578606;27;20630;-68
2021/08/10 11:05:36;;;;;;;;;;;;;;;;;;4561945;27;19916;-68
2021/08/10 11:07:53;;;;;;;;;;;;;;;;;;4577887;27;19916;-68
2021/08/10 11:10:11;;;;;;;;;;;;;;;;;;4577557;27;19931;-68
2021/08/10 11:12:33;;;;;;;;;;;;;;;;;;4594621;27;19954;-68
2021/08/10 11:14:50;;;;;;;;;;;;;;;;;;4580509;27;19981;-68
2021/08/10 11:17:14;;;;;;;;;;;;;;;;;;4580413;27;19923;-68
2021/08/10 11:19:31;;;;;;;;;;;;;;;;;;4575697;27;19922;-68
2021/08/10 11:21:43;;;;;;;;;;;;;;;;;;4580189;27;20921;-67
2021/08/10 11:23:54;;;;;;;;;;;;;;;;;;4564900;27;19920;-69
2021/08/10 11:26:11;;;;;;;;;;;;;;;;;;4583064;27;19916;-67
2021/08/10 11:28:25;;;;;;;;;;;;;;;;;;4583441;27;19926;-68
2021/08/10 11:30:35;;;;;;;;;;;;;;;;;;4581663;27;19920;-68
2021/08/10 11:32:46;;;;;;;;;;;;;;;;;;4580348;27;19912;-68
2021/08/10 11:34:56;;;;;;;;;;;;;;;;;;4581091;27;19920;-68
2021/08/10 11:37:17;;;;;;;;;;;;;;;;;;4582987;27;19915;-68
2021/08/10 11:39:27;;;;;;;;;;;;;;;;;;4580782;27;20120;-68
2021/08/10 11:41:38;;;;;;;;;;;;;;;;;;4580297;27;19965;-68
2021/08/10 11:43:49;;;;;;;;;;;;;;;;;;4582261;27;19984;-68
2021/08/10 11:46:00;;;;;;;;;;;;;;;;;;4582940;27;20432;-68
2021/08/10 11:48:10;;;;;;;;;;;;;;;;;;4582301;27;19926;-68
2021/08/10 11:50:25;;;;;;;;;;;;;;;;;;4583952;27;20016;-68
2021/08/10 11:52:42;;;;;;;;;;;;;;;;;;4582620;27;20008;-68
2021/08/10 11:54:57;;;;;;;;;;;;;;;;;;4582725;27;19916;-69
2021/08/10 11:57:12;;;;;;;;;;;;;;;;;;4584650;27;19971;-68
2021/08/10 11:59:26;;;;;;;;;;;;;;;;;;4581105;27;20162;-68
2021/08/10 12:01:37;;;;;;;;;;;;;;;;;;4580683;27;19919;-68
2021/08/10 12:03:49;;;;;;;;;;;;;;;;;;4582585;27;20391;-68
2021/08/10 12:05:59;;;;;;;;;;;;;;;;;;4582088;27;19931;-68
2021/08/10 12:08:09;;;;;;;;;;;;;;;;;;4580873;27;19916;-68
2021/08/10 12:10:21;;;;;;;;;;;;;;;;;;4580263;27;20380;-68
2021/08/10 12:12:34;;;;;;;;;;;;;;;;;;4568619;27;19919;-68
2021/08/10 12:14:44;;;;;;;;;;;;;;;;;;4580951;27;19916;-68
2021/08/10 12:17:04;;;;;;;;;;;;;;;;;;4580355;27;19928;-68
2021/08/10 12:19:14;;;;;;;;;;;;;;;;;;4580912;27;19920;-68
2021/08/10 12:21:26;;;;;;;;;;;;;;;;;;4579456;27;19916;-68
2021/08/10 12:23:40;;;;;;;;;;;;;;;;;;4581298;27;19926;-68
2021/08/10 12:25:50;;;;;;;;;;;;;;;;;;4579784;27;19915;-68
2021/08/10 12:28:07;;;;;;;;;;;;;;;;;;4581695;27;19916;-68
2021/08/10 12:30:18;;;;;;;;;;;;;;;;;;4579267;27;19931;-69
2021/08/10 12:32:29;;;;;;;;;;;;;;;;;;4580439;27;19918;-68
2021/08/10 12:34:40;;;;;;;;;;;;;;;;;;4583808;27;19978;-68
2021/08/10 12:36:51;;;;;;;;;;;;;;;;;;4578429;27;19962;-68
2021/08/10 12:39:02;;;;;;;;;;;;;;;;;;4581767;27;19916;-68
2021/08/10 12:41:13;;;;;;;;;;;;;;;;;;4582078;27;20027;-68
2021/08/10 12:43:23;;;;;;;;;;;;;;;;;;4564918;27;19916;-68
2021/08/10 12:45:33;;;;;;;;;;;;;;;;;;4578976;27;19916;-69
2021/08/10 12:47:44;;;;;;;;;;;;;;;;;;4580572;27;20303;-69
2021/08/10 12:49:56;;;;;;;;;;;;;;;;;;4580892;27;19913;-68
2021/08/10 12:52:13;;;;;;;;;;;;;;;;;;4580068;27;19916;-68
2021/08/10 12:54:25;;;;;;;;;;;;;;;;;;4581689;27;20439;-68
2021/08/10 12:56:36;;;;;;;;;;;;;;;;;;4555584;27;20119;-68
2021/08/10 12:58:50;;;;;;;;;;;;;;;;;;4581072;27;19926;-68
2021/08/10 13:01:07;;;;;;;;;;;;;;;;;;4585522;27;20010;-69
2021/08/10 13:03:21;;;;;;;;;;;;;;;;;;4580827;27;20664;-68
2021/08/10 13:05:37;;;;;;;;;;;;;;;;;;4580678;27;20533;-68
2021/08/10 13:08:01;;;;;;;;;;;;;;;;;;4579709;27;19915;-67
2021/08/10 13:10:12;;;;;;;;;;;;;;;;;;4581058;27;19926;-68
2021/08/10 13:12:23;;;;;;;;;;;;;;;;;;4581060;27;19924;-68
2021/08/10 13:14:51;;;;;;;;;;;;;;;;;;4580333;27;20415;-68
2021/08/10 13:17:01;;;;;;;;;;;;;;;;;;4580398;27;19923;-68
2021/08/10 13:19:17;;;;;;;;;;;;;;;;;;4579230;27;19916;-68
2021/08/10 13:21:40;;;;;;;;;;;;;;;;;;4562581;27;19967;-68
2021/08/10 13:24:04;;;;;;;;;;;;;;;;;;4579629;27;19930;-68
2021/08/10 13:26:15;;;;;;;;;;;;;;;;;;4582554;27;20015;-68
2021/08/10 13:28:26;;;;;;;;;;;;;;;;;;4584074;27;19915;-68
2021/08/10 13:30:38;;;;;;;;;;;;;;;;;;4581140;27;19978;-68
2021/08/10 13:33:05;;;;;;;;;;;;;;;;;;4580259;27;20424;-68
2021/08/10 13:35:15;;;;;;;;;;;;;;;;;;4579272;27;19916;-68
2021/08/10 13:37:26;;;;;;;;;;;;;;;;;;4577341;27;19920;-68
2021/08/10 13:39:39;;;;;;;;;;;;;;;;;;4579458;27;19931;-69
2021/08/10 13:41:52;;;;;;;;;;;;;;;;;;4579345;27;19920;-68
2021/08/10 13:44:03;;;;;;;;;;;;;;;;;;4583248;27;19923;-69
2021/08/10 13:46:14;;;;;;;;;;;;;;;;;;4576266;27;19916;-68
2021/08/10 13:48:24;;;;;;;;;;;;;;;;;;4580073;27;19920;-69
2021/08/10 13:50:35;;;;;;;;;;;;;;;;;;4579287;27;19920;-69
2021/08/10 13:52:46;;;;;;;;;;;;;;;;;;4579912;27;19955;-69
2021/08/10 13:54:56;;;;;;;;;;;;;;;;;;4579147;27;20006;-68
2021/08/10 13:57:07;;;;;;;;;;;;;;;;;;4579216;27;19916;-69
2021/08/10 13:59:17;;;;;;;;;;;;;;;;;;4579569;27;20553;-69
2021/08/10 14:01:47;;;;;;;;;;;;;;;;;;4577961;27;20018;-69
2021/08/10 14:03:57;;;;;;;;;;;;;;;;;;4579653;27;19920;-68
2021/08/10 14:06:07;;;;;;;;;;;;;;;;;;4582729;27;19919;-68
2021/08/10 14:08:18;;;;;;;;;;;;;;;;;;4579556;27;19919;-69
2021/08/10 14:10:29;;;;;;;;;;;;;;;;;;4578886;27;20217;-69
2021/08/10 14:12:39;;;;;;;;;;;;;;;;;;4577977;27;24155;-68
2021/08/10 14:14:49;;;;;;;;;;;;;;;;;;4580400;27;19916;-69
2021/08/10 14:17:00;;;;;;;;;;;;;;;;;;4577311;27;20914;-69
2021/08/10 14:19:10;;;;;;;;;;;;;;;;;;4581014;27;20254;-69
2021/08/10 14:21:20;;;;;;;;;;;;;;;;;;4580358;27;19916;-68
2021/08/10 14:23:31;;;;;;;;;;;;;;;;;;4581333;27;20402;-69
2021/08/10 14:25:41;;;;;;;;;;;;;;;;;;4580111;27;19923;-69
2021/08/10 14:27:53;;;;;;;;;;;;;;;;;;4578852;27;19915;-68
2021/08/10 14:30:05;;;;;;;;;;;;;;;;;;4578189;27;20490;-69
2021/08/10 14:32:15;;;;;;;;;;;;;;;;;;4578857;27;19916;-69
2021/08/10 14:34:25;;;;;;;;;;;;;;;;;;4579203;27;20339;-69
2021/08/10 14:36:36;;;;;;;;;;;;;;;;;;4580426;27;19965;-69
2021/08/10 14:38:46;;;;;;;;;;;;;;;;;;4579711;27;19912;-69
2021/08/10 14:40:56;;;;;;;;;;;;;;;;;;4578547;27;19916;-68
2021/08/10 14:43:07;;;;;;;;;;;;;;;;;;4577597;27;20375;-69
2021/08/10 14:45:17;;;;;;;;;;;;;;;;;;4580750;27;20307;-69
2021/08/10 14:47:27;;;;;;;;;;;;;;;;;;4577356;27;19969;-69
2021/08/10 14:49:38;;;;;;;;;;;;;;;;;;4575042;27;20433;-69
2021/08/10 14:51:48;;;;;;;;;;;;;;;;;;4552324;27;19920;-69
2021/08/10 14:53:58;;;;;;;;;;;;;;;;;;4569470;27;19958;-69
2021/08/10 14:56:09;;;;;;;;;;;;;;;;;;4577321;27;19920;-68
2021/08/10 14:58:19;;;;;;;;;;;;;;;;;;4577440;27;20380;-69
2021/08/10 15:00:29;;;;;;;;;;;;;;;;;;4580728;27;19920;-67
2021/08/10 15:02:42;;;;;;;;;;;;;;;;;;4583935;27;19968;-68
2021/08/10 15:04:52;;;;;;;;;;;;;;;;;;4583611;27;19912;-68